Time;durP1;ratioP1;P1;durP2;ratioP2;P2;SDS_P1;SDS_P2;PMS_P1;PMS_P2;Temp;Humidity;BMP_temperature;BMP_pressure;BME280_temperature;BME280_humidity;BME280_pressure;Samples;Min_cycle;Max_cycle;Signal;HPM_P1;HPM_P2
2022/11/16 00:01:59;;;;;;;25.00;12.20;;;;;;;6.96;100.00;99633.85;106077;1292;74234;-77
2022/11/16 00:04:47;;;;;;;21.80;10.50;;;;;;;6.89;100.00;99631.73;106075;1276;68903;-78
2022/11/16 00:07:35;;;;;;;24.00;10.50;;;;;;;6.82;100.00;99637.79;106070;1297;73841;-77
2022/11/16 00:10:23;;;;;;;27.70;12.30;;;;;;;6.81;100.00;99640.17;106074;1296;59832;-77
2022/11/16 00:13:11;;;;;;;29.90;13.10;;;;;;;6.82;100.00;99643.45;106093;1289;59411;-78
2022/11/16 00:15:59;;;;;;;29.30;12.60;;;;;;;6.86;100.00;99643.77;104607;1281;1002327;-78
2022/11/16 00:18:46;;;;;;;28.90;12.50;;;;;;;6.87;100.00;99639.95;106061;1284;69019;-78
2022/11/16 00:21:34;;;;;;;24.70;12.30;;;;;;;6.88;100.00;99636.00;106045;1292;73491;-78
2022/11/16 00:24:22;;;;;;;27.20;12.50;;;;;;;6.91;100.00;99632.77;106083;1290;59291;-73
2022/11/16 00:27:10;;;;;;;25.00;11.60;;;;;;;6.91;100.00;99633.67;106071;1289;60703;-76
2022/11/16 00:29:58;;;;;;;22.60;10.00;;;;;;;6.93;100.00;99634.23;106059;1295;73872;-76
2022/11/16 00:32:46;;;;;;;24.70;10.40;;;;;;;6.93;100.00;99633.72;105992;1291;68983;-76
2022/11/16 00:35:38;;;;;;;18.10;8.00;;;;;;;6.92;100.00;99635.23;106058;1289;72944;-76
2022/11/16 00:38:26;;;;;;;23.60;10.30;;;;;;;6.92;100.00;99634.69;105950;1283;59185;-76
2022/11/16 00:41:14;;;;;;;21.40;8.50;;;;;;;6.92;100.00;99635.52;106092;1285;59286;-76
2022/11/16 00:44:01;;;;;;;22.10;9.40;;;;;;;6.92;100.00;99641.91;106053;1289;74313;-76
2022/11/16 00:46:49;;;;;;;21.40;9.10;;;;;;;6.91;100.00;99643.21;105261;1289;1002422;-75
2022/11/16 00:49:37;;;;;;;22.00;9.10;;;;;;;6.88;100.00;99646.57;105933;1294;73789;-75
2022/11/16 00:52:25;;;;;;;16.20;7.00;;;;;;;6.84;99.91;99648.62;105994;1292;59542;-75
2022/11/16 00:55:13;;;;;;;14.60;7.50;;;;;;;6.82;99.26;99653.52;105992;1297;59257;-75
2022/11/16 00:58:00;;;;;;;10.30;3.80;;;;;;;6.80;97.52;99657.55;106050;1289;73905;-75
2022/11/16 01:00:49;;;;;;;8.70;2.80;;;;;;;6.75;94.70;99661.20;105998;1283;67943;-78
2022/11/16 01:03:40;;;;;;;7.80;2.50;;;;;;;6.70;93.66;99669.67;106082;1292;73730;-76
2022/11/16 01:06:28;;;;;;;6.50;1.90;;;;;;;6.65;92.96;99658.74;106053;1288;57554;-76
2022/11/16 01:09:15;;;;;;;6.20;1.70;;;;;;;6.59;91.40;99661.60;106091;1292;59269;-78
2022/11/16 01:12:08;;;;;;;5.20;1.30;;;;;;;6.55;90.78;99662.75;106008;1287;73197;-75
2022/11/16 01:14:57;;;;;;;4.60;1.10;;;;;;;6.53;91.45;99665.15;106093;1284;67868;-76
2022/11/16 01:17:45;;;;;;;6.20;1.40;;;;;;;6.53;90.66;99663.63;105982;1282;72735;-76
2022/11/16 01:20:33;;;;;;;4.90;1.30;;;;;;;6.51;89.84;99666.55;105960;1295;60385;-76
2022/11/16 01:23:20;;;;;;;4.60;1.20;;;;;;;6.47;88.55;99667.31;105988;1292;59536;-76
2022/11/16 01:26:08;;;;;;;4.90;1.10;;;;;;;6.45;89.42;99662.67;106087;1289;73056;-75
2022/11/16 01:28:58;;;;;;;6.10;1.30;;;;;;;6.43;88.58;99661.27;106016;1292;68236;-76
2022/11/16 01:31:49;;;;;;;5.90;1.20;;;;;;;6.40;88.30;99655.47;105961;1290;73869;-75
2022/11/16 01:34:37;;;;;;;5.00;1.10;;;;;;;6.37;86.69;99649.48;106070;1289;59374;-76
2022/11/16 01:37:41;;;;;;;5.00;1.40;;;;;;;6.37;87.17;99646.88;105963;1292;59465;-76
2022/11/16 01:40:28;;;;;;;4.10;0.90;;;;;;;6.37;87.07;99642.26;106025;1290;73897;-76
2022/11/16 01:43:26;;;;;;;5.60;1.20;;;;;;;6.33;86.77;99636.04;106096;1289;67832;-77
2022/11/16 01:46:20;;;;;;;4.80;1.30;;;;;;;6.26;87.07;99633.27;105985;1291;73899;-76
2022/11/16 01:49:18;;;;;;;4.80;1.00;;;;;;;6.25;87.18;99635.11;105992;1290;60636;-75
2022/11/16 01:52:12;;;;;;;4.30;1.10;;;;;;;6.21;84.86;99628.55;106013;1282;61527;-76
2022/11/16 01:55:00;;;;;;;4.50;1.00;;;;;;;6.19;84.64;99630.46;106079;1289;74281;-76
2022/11/16 01:57:55;;;;;;;4.50;1.20;;;;;;;6.16;84.77;99627.08;105966;1292;67867;-76
2022/11/16 02:00:43;;;;;;;5.30;1.00;;;;;;;6.16;84.84;99633.82;106024;1290;72791;-75
2022/11/16 02:04:03;;;;;;;4.00;1.10;;;;;;;6.14;84.23;99633.91;106009;1292;60326;-76
2022/11/16 02:06:51;;;;;;;4.00;1.10;;;;;;;6.13;83.36;99635.55;106000;1292;61802;-75
2022/11/16 02:10:07;;;;;;;3.90;1.00;;;;;;;6.13;83.31;99633.80;106005;1291;72787;-76
2022/11/16 02:13:33;;;;;;;3.90;1.00;;;;;;;6.13;83.26;99632.39;106013;1292;68059;-75
2022/11/16 02:16:54;;;;;;;3.60;0.80;;;;;;;6.13;83.41;99629.06;106044;1289;72575;-75
2022/11/16 02:20:23;;;;;;;4.30;1.10;;;;;;;6.10;82.18;99628.75;106000;1292;58940;-78
2022/11/16 02:23:38;;;;;;;3.70;1.00;;;;;;;6.08;82.70;99633.09;106006;1294;59078;-77
2022/11/16 02:26:58;;;;;;;4.50;1.00;;;;;;;6.07;83.19;99631.20;106043;1289;72212;-75
2022/11/16 02:29:52;;;;;;;4.70;1.20;;;;;;;6.08;82.85;99625.18;106008;1292;66585;-74
2022/11/16 02:32:59;;;;;;;4.00;1.00;;;;;;;6.06;82.13;99621.94;106083;1284;72646;-76
2022/11/16 02:35:55;;;;;;;3.90;1.10;;;;;;;6.05;81.74;99615.00;106078;1289;57156;-74
2022/11/16 02:38:53;;;;;;;4.50;1.30;;;;;;;6.02;82.22;99611.10;105946;1292;61186;-77
2022/11/16 02:41:44;;;;;;;5.00;1.00;;;;;;;6.00;82.02;99616.05;106023;1292;74160;-77
2022/11/16 02:44:39;;;;;;;3.50;0.80;;;;;;;6.00;82.83;99615.48;105982;1289;66537;-76
2022/11/16 02:47:32;;;;;;;4.50;1.00;;;;;;;6.02;82.47;99612.38;106058;1292;73864;-78
2022/11/16 02:50:22;;;;;;;5.60;1.20;;;;;;;6.01;81.71;99603.98;105952;1282;57191;-77
2022/11/16 02:53:12;;;;;;;4.40;1.10;;;;;;;6.00;81.56;99608.13;106004;1295;61410;-77
2022/11/16 02:56:00;;;;;;;4.30;1.20;;;;;;;5.98;81.92;99606.08;106018;1289;72771;-78
2022/11/16 02:58:47;;;;;;;3.70;0.90;;;;;;;5.99;81.92;99606.58;106024;1292;67900;-78
2022/11/16 03:01:43;;;;;;;3.80;0.90;;;;;;;5.98;81.12;99599.95;105943;1291;72808;-78
2022/11/16 03:04:40;;;;;;;5.30;1.00;;;;;;;5.99;81.31;99597.40;105986;1292;57206;-79
2022/11/16 03:07:37;;;;;;;4.40;1.20;;;;;;;5.99;81.14;99596.00;105984;1285;58786;-78
2022/11/16 03:13:38;;;;;;;4.10;0.90;;;;;;;5.96;81.60;99597.75;105966;1290;66782;-77
2022/11/16 03:16:43;;;;;;;4.40;1.00;;;;;;;5.95;81.90;99601.13;105202;1291;1014368;-78
2022/11/16 03:19:42;;;;;;;3.30;0.80;;;;;;;5.96;81.79;99596.34;105948;1290;58217;-78
2022/11/16 03:22:44;;;;;;;3.60;0.90;;;;;;;5.95;81.83;99598.33;106088;1295;60110;-78
2022/11/16 03:25:47;;;;;;;5.00;1.10;;;;;;;5.95;81.98;99591.30;105856;1294;74209;-78
2022/11/16 03:28:51;;;;;;;3.80;1.00;;;;;;;5.96;81.88;99590.52;105979;1288;67856;-78
2022/11/16 03:31:50;;;;;;;5.40;1.30;;;;;;;5.92;81.53;99587.44;105914;1291;73973;-78
2022/11/16 03:34:41;;;;;;;3.30;0.90;;;;;;;5.88;81.74;99588.38;105925;1290;58065;-78
2022/11/16 03:37:30;;;;;;;5.20;1.20;;;;;;;5.87;81.65;99589.52;106029;1282;58661;-77
2022/11/16 03:40:21;;;;;;;4.00;1.00;;;;;;;5.85;81.78;99594.08;105977;1286;71596;-78
2022/11/16 03:43:10;;;;;;;3.80;1.00;;;;;;;5.82;80.69;99594.28;105969;1289;67115;-77
2022/11/16 03:45:59;;;;;;;3.60;1.00;;;;;;;5.79;80.92;99598.28;105949;1289;72642;-77
2022/11/16 03:48:47;;;;;;;5.50;1.40;;;;;;;5.77;80.60;99594.90;106012;1290;57208;-76
2022/11/16 03:51:41;;;;;;;4.50;1.30;;;;;;;5.74;79.88;99595.98;106018;1292;61538;-77
2022/11/16 03:54:29;;;;;;;4.20;1.00;;;;;;;5.70;79.37;99600.13;106002;1290;72789;-77
2022/11/16 03:57:17;;;;;;;3.80;1.00;;;;;;;5.68;79.66;99599.22;106079;1292;68901;-77
2022/11/16 04:00:11;;;;;;;4.00;0.90;;;;;;;5.67;79.81;99598.59;106027;1289;71389;-77
2022/11/16 04:03:01;;;;;;;4.60;1.30;;;;;;;5.67;79.50;99597.36;106014;1292;59923;-77
2022/11/16 04:24:54;;;;;;;8.50;3.00;;;;;;;5.67;81.36;99604.17;106035;1292;71698;-76
2022/11/16 04:40:29;;;;;;;7.80;1.80;;;;;;;5.60;80.32;99588.23;105981;1287;73825;-76
2022/11/16 04:43:30;;;;;;;4.50;1.00;;;;;;;5.56;79.98;99589.02;106097;1287;69483;-78
2022/11/16 04:49:25;;;;;;;5.00;1.50;;;;;;;5.51;79.86;99593.42;105987;1291;57355;-77
2022/11/16 04:52:14;;;;;;;5.00;1.40;;;;;;;5.49;79.53;99597.08;106027;1294;60029;-78
2022/11/16 04:55:03;;;;;;;4.80;1.30;;;;;;;5.45;78.73;99594.14;105934;1292;74327;-76
2022/11/16 04:57:52;;;;;;;5.40;1.60;;;;;;;5.40;77.19;99589.20;105933;1298;67945;-77
2022/11/16 05:00:40;;;;;;;4.60;1.30;;;;;;;5.37;76.93;99584.84;105868;1290;73881;-77
2022/11/16 05:03:28;;;;;;;5.60;1.40;;;;;;;5.35;76.86;99583.86;105978;1292;57241;-79
2022/11/16 05:06:16;;;;;;;5.50;1.90;;;;;;;5.33;76.82;99584.17;105961;1296;60359;-78
2022/11/16 05:09:04;;;;;;;5.10;1.70;;;;;;;5.33;77.27;99585.05;105947;1287;73210;-77
2022/11/16 05:11:52;;;;;;;5.80;1.90;;;;;;;5.33;77.85;99583.66;105951;1292;66682;-79
2022/11/16 05:14:41;;;;;;;5.60;1.80;;;;;;;5.31;78.01;99577.81;106001;1284;72360;-78
2022/11/16 05:17:29;;;;;;;6.00;1.90;;;;;;;5.29;78.14;99580.73;105178;1290;1002373;-80
2022/11/16 05:21:41;;;;;;;5.90;1.50;;;;;;;5.29;78.40;99583.36;105957;1276;60542;-79
2022/11/16 05:26:40;;;;;;;7.50;2.50;;;;;;;5.29;77.62;99582.50;105901;1290;67969;-79
2022/11/16 05:29:27;;;;;;;7.00;2.50;;;;;;;5.26;77.48;99584.80;105976;1291;72606;-78
2022/11/16 05:32:17;;;;;;;6.00;2.10;;;;;;;5.23;77.68;99586.23;105897;1298;57340;-78
2022/11/16 05:35:05;;;;;;;5.60;2.20;;;;;;;5.19;78.35;99590.19;105905;1290;61428;-77
2022/11/16 05:37:53;;;;;;;5.40;1.80;;;;;;;5.16;78.83;99594.05;105975;1292;72927;-78
2022/11/16 05:40:41;;;;;;;6.10;2.00;;;;;;;5.15;79.31;99593.23;105910;1297;67007;-75
2022/11/16 05:43:30;;;;;;;6.00;2.10;;;;;;;5.16;78.81;99593.90;105893;1289;73215;-77
2022/11/16 05:46:32;;;;;;;6.30;2.20;;;;;;;5.12;78.57;99595.17;105099;1294;1002099;-78
2022/11/16 05:49:21;;;;;;;6.20;2.20;;;;;;;5.07;78.13;99595.83;105987;1290;60401;-77
2022/11/16 05:52:09;;;;;;;6.20;2.10;;;;;;;5.03;78.09;99601.56;105877;1294;70929;-78
2022/11/16 05:54:57;;;;;;;7.20;2.20;;;;;;;4.99;78.43;99600.06;105913;1292;68654;-78
2022/11/16 05:57:46;;;;;;;5.80;2.00;;;;;;;4.97;78.81;99604.05;105903;1292;73881;-77
2022/11/16 06:00:34;;;;;;;5.50;1.80;;;;;;;4.98;79.10;99604.50;105898;1291;57397;-78
2022/11/16 06:03:23;;;;;;;5.80;2.30;;;;;;;4.97;79.30;99612.12;105986;1297;60439;-79
2022/11/16 06:06:11;;;;;;;6.00;2.40;;;;;;;4.93;79.72;99606.73;105913;1281;71655;-78
2022/11/16 06:08:58;;;;;;;5.30;1.80;;;;;;;4.92;79.96;99610.45;105877;1290;68886;-77
2022/11/16 06:11:46;;;;;;;6.40;2.00;;;;;;;4.90;79.66;99611.98;105899;1291;72474;-78
2022/11/16 06:14:34;;;;;;;6.20;2.20;;;;;;;4.88;80.27;99616.73;105940;1291;57252;-79
2022/11/16 06:17:21;;;;;;;6.60;2.10;;;;;;;4.85;80.49;99616.54;105950;1292;61643;-79
2022/11/16 06:20:10;;;;;;;5.90;1.90;;;;;;;4.82;80.61;99615.31;105966;1288;72750;-80
2022/11/16 06:22:57;;;;;;;5.40;1.80;;;;;;;4.79;80.16;99614.45;105959;1291;68082;-79
2022/11/16 06:25:51;;;;;;;6.00;1.70;;;;;;;4.74;79.50;99614.55;105906;1292;71347;-81
2022/11/16 06:28:40;;;;;;;6.10;2.00;;;;;;;4.72;79.56;99616.75;105954;1291;58415;-80
2022/11/16 06:31:28;;;;;;;5.40;2.10;;;;;;;4.69;79.25;99619.60;106006;1291;60406;-79
2022/11/16 06:34:18;;;;;;;6.50;2.20;;;;;;;4.67;79.28;99613.02;106128;1295;73004;-79
2022/11/16 06:37:05;;;;;;;5.30;1.70;;;;;;;4.66;79.55;99613.95;105805;1294;66513;-79
2022/11/16 06:39:53;;;;;;;5.30;1.60;;;;;;;4.68;79.57;99617.92;105897;1284;72511;-80
2022/11/16 06:42:42;;;;;;;5.60;1.80;;;;;;;4.68;78.75;99617.57;105907;1292;58809;-78
2022/11/16 06:45:30;;;;;;;5.10;1.80;;;;;;;4.66;77.62;99618.91;105931;1291;58651;-82
2022/11/16 06:48:20;;;;;;;5.30;1.80;;;;;;;4.63;77.23;99610.98;105778;1290;71703;-79
2022/11/16 06:51:08;;;;;;;5.40;1.70;;;;;;;4.61;76.78;99613.05;105950;1292;66249;-81
2022/11/16 06:53:56;;;;;;;6.30;2.00;;;;;;;4.60;76.85;99621.19;105844;1290;73161;-78
2022/11/16 06:56:44;;;;;;;5.80;1.90;;;;;;;4.59;76.66;99619.45;105918;1298;60034;-79
2022/11/16 06:59:31;;;;;;;6.40;2.30;;;;;;;4.59;77.28;99623.02;105963;1290;58851;-78
2022/11/16 07:02:20;;;;;;;6.80;1.80;;;;;;;4.59;77.80;99622.64;105993;1284;73002;-78
2022/11/16 07:05:08;;;;;;;6.30;1.80;;;;;;;4.56;77.73;99619.81;106002;1292;68021;-77
2022/11/16 07:07:56;;;;;;;5.70;2.10;;;;;;;4.54;77.99;99616.98;105959;1284;73420;-79
2022/11/16 07:10:44;;;;;;;6.00;1.70;;;;;;;4.52;78.55;99621.86;105970;1284;58882;-77
2022/11/16 07:13:35;;;;;;;6.50;2.00;;;;;;;4.51;79.17;99618.38;105930;1291;60094;-78
2022/11/16 07:16:23;;;;;;;7.80;1.70;;;;;;;4.53;79.23;99615.96;105858;1290;72765;-78
2022/11/16 07:19:15;;;;;;;5.30;1.70;;;;;;;4.53;79.58;99617.59;105907;1290;69064;-78
2022/11/16 07:22:03;;;;;;;5.60;2.10;;;;;;;4.51;79.59;99613.98;105924;1290;72721;-79
2022/11/16 07:24:51;;;;;;;5.70;1.80;;;;;;;4.49;79.38;99618.14;105988;1294;60022;-78
2022/11/16 07:27:39;;;;;;;5.40;2.20;;;;;;;4.46;79.72;99619.55;105969;1291;61625;-78
2022/11/16 07:30:27;;;;;;;6.40;2.80;;;;;;;4.45;80.06;99623.33;105936;1291;72781;-77
2022/11/16 07:33:20;;;;;;;6.00;2.20;;;;;;;4.42;80.92;99621.35;105942;1292;67086;-79
2022/11/16 07:36:40;;;;;;;6.30;2.10;;;;;;;4.37;81.38;99622.54;105785;1296;71529;-79
2022/11/16 07:39:28;;;;;;;7.50;2.50;;;;;;;4.32;81.81;99624.81;105751;1292;58829;-80
2022/11/16 07:42:17;;;;;;;5.90;2.30;;;;;;;4.23;81.49;99624.61;105997;1291;60377;-80
2022/11/16 07:45:11;;;;;;;6.30;2.20;;;;;;;4.16;81.27;99620.48;105993;1284;73109;-79
2022/11/16 07:48:03;;;;;;;6.60;2.60;;;;;;;4.07;80.98;99623.05;105923;1283;67903;-80
2022/11/16 07:51:14;;;;;;;7.40;2.40;;;;;;;3.96;81.32;99625.45;105970;1283;72323;-80
2022/11/16 07:54:07;;;;;;;7.70;2.80;;;;;;;3.87;82.09;99625.96;105909;1291;58595;-81
2022/11/16 07:56:54;;;;;;;7.00;3.30;;;;;;;3.83;82.48;99632.51;105951;1286;58888;-81
2022/11/16 07:59:42;;;;;;;6.80;2.40;;;;;;;3.78;82.98;99628.91;105959;1291;73674;-81
2022/11/16 08:02:33;;;;;;;6.40;2.60;;;;;;;3.75;83.52;99634.18;105923;1292;69031;-78
2022/11/16 08:05:21;;;;;;;8.00;2.60;;;;;;;3.73;84.17;99632.02;105967;1292;71281;-79
2022/11/16 08:08:10;;;;;;;6.60;2.70;;;;;;;3.67;84.69;99633.73;105965;1291;57196;-80
2022/11/16 08:11:02;;;;;;;6.00;2.40;;;;;;;3.65;84.64;99640.53;105919;1291;60340;-79
2022/11/16 08:13:50;;;;;;;7.30;2.20;;;;;;;3.64;84.39;99635.30;105963;1292;73857;-79
2022/11/16 08:16:38;;;;;;;7.20;2.30;;;;;;;3.64;84.52;99640.42;105902;1298;69252;-78
2022/11/16 08:19:29;;;;;;;7.00;2.40;;;;;;;3.64;83.99;99639.35;105844;1294;71498;-79
2022/11/16 08:22:17;;;;;;;6.00;2.20;;;;;;;3.66;83.61;99641.88;105917;1297;57586;-78
2022/11/16 08:25:06;;;;;;;6.60;2.50;;;;;;;3.66;83.71;99642.03;105976;1292;60271;-77
2022/11/16 08:27:54;;;;;;;24.50;11.70;;;;;;;3.65;82.71;99646.99;105947;1292;71346;-77
2022/11/16 08:30:42;;;;;;;9.00;3.90;;;;;;;3.66;84.10;99642.23;105902;1284;67567;-77
2022/11/16 08:33:33;;;;;;;14.20;6.90;;;;;;;3.61;83.65;99639.89;105975;1297;71254;-75
2022/11/16 08:36:22;;;;;;;20.40;10.00;;;;;;;3.58;85.63;99643.33;105944;1292;57385;-78
2022/11/16 08:39:10;;;;;;;13.40;7.10;;;;;;;3.65;86.59;99647.34;105986;1292;60076;-76
2022/11/16 08:41:57;;;;;;;7.40;2.50;;;;;;;3.66;85.46;99644.33;105920;1291;73041;-77
2022/11/16 08:44:48;;;;;;;15.90;7.50;;;;;;;3.66;85.28;99643.27;105921;1291;67991;-75
2022/11/16 08:47:38;;;;;;;8.70;4.20;;;;;;;3.69;85.20;99642.23;105963;1292;73864;-76
2022/11/16 08:50:27;;;;;;;8.90;4.00;;;;;;;3.72;85.76;99645.41;105976;1288;57487;-76
2022/11/16 08:53:15;;;;;;;11.70;4.20;;;;;;;3.76;85.42;99645.33;105178;1291;1002602;-76
2022/11/16 08:56:11;;;;;;;7.60;2.30;;;;;;;3.81;85.32;99651.40;105903;1291;72861;-75
2022/11/16 08:59:00;;;;;;;7.00;2.70;;;;;;;3.85;82.79;99647.67;105914;1290;69048;-78
2022/11/16 09:01:48;;;;;;;6.90;2.60;;;;;;;3.85;81.43;99647.15;105915;1288;72765;-76
2022/11/16 09:04:36;;;;;;;7.50;2.20;;;;;;;3.89;81.14;99650.91;105982;1292;58305;-76
2022/11/16 09:07:24;;;;;;;6.10;2.00;;;;;;;3.90;80.61;99649.30;105966;1290;59051;-77
2022/11/16 09:10:12;;;;;;;4.90;1.70;;;;;;;3.85;80.93;99651.52;105966;1291;71846;-76
2022/11/16 09:13:00;;;;;;;6.00;1.90;;;;;;;3.84;80.86;99655.76;106001;1283;66815;-76
2022/11/16 09:15:54;;;;;;;6.00;1.50;;;;;;;3.80;80.16;99651.95;105991;1291;71235;-80
2022/11/16 09:18:45;;;;;;;5.50;1.70;;;;;;;3.76;79.89;99652.02;105836;1292;58403;-74
2022/11/16 09:21:34;;;;;;;8.10;1.90;;;;;;;3.72;79.98;99652.08;105984;1283;60871;-76
2022/11/16 09:24:22;;;;;;;7.00;2.00;;;;;;;3.70;80.58;99647.27;105892;1292;71077;-75
2022/11/16 09:27:10;;;;;;;6.30;1.90;;;;;;;3.75;80.75;99645.23;105986;1291;68715;-76
2022/11/16 09:29:58;;;;;;;5.90;1.50;;;;;;;3.75;80.50;99646.10;105995;1291;72359;-77
2022/11/16 09:32:45;;;;;;;5.90;1.40;;;;;;;3.76;80.64;99645.00;106002;1291;57757;-77
2022/11/16 09:35:34;;;;;;;5.00;1.50;;;;;;;3.69;80.50;99647.51;105977;1287;61515;-79
2022/11/16 09:38:22;;;;;;;6.30;1.30;;;;;;;3.63;80.83;99642.39;105897;1291;73901;-79
2022/11/16 09:42:18;;;;;;;5.00;1.50;;;;;;;3.49;81.31;99639.29;105980;1291;67730;-77
2022/11/16 09:45:21;;;;;;;5.10;1.40;;;;;;;3.37;82.18;99644.34;105970;1290;73785;-78
2022/11/16 09:48:13;;;;;;;4.80;1.40;;;;;;;3.31;82.65;99640.12;105994;1294;57779;-79
2022/11/16 09:51:07;;;;;;;5.50;1.70;;;;;;;3.29;82.46;99640.90;106102;1284;58679;-78
2022/11/16 09:54:02;;;;;;;4.60;1.40;;;;;;;3.30;83.07;99640.69;106004;1284;74499;-77
2022/11/16 09:56:56;;;;;;;4.60;1.30;;;;;;;3.27;83.40;99637.71;106023;1290;67517;-79
2022/11/16 09:59:50;;;;;;;4.30;1.10;;;;;;;3.29;83.33;99638.30;105951;1290;72684;-78
2022/11/16 10:02:56;;;;;;;5.10;1.40;;;;;;;3.32;82.55;99636.02;105974;1284;57452;-78
2022/11/16 10:06:07;;;;;;;6.10;1.80;;;;;;;3.31;81.78;99631.70;105944;1293;60364;-78
2022/11/16 10:08:57;;;;;;;4.90;1.30;;;;;;;3.31;81.92;99634.48;105844;1291;71459;-79
2022/11/16 10:12:03;;;;;;;4.80;1.40;;;;;;;3.30;82.34;99630.35;106010;1290;68052;-81
2022/11/16 10:15:30;;;;;;;4.10;1.10;;;;;;;3.28;82.66;99629.06;105907;1284;73736;-78
2022/11/16 10:18:38;;;;;;;4.80;1.60;;;;;;;3.28;82.92;99625.91;105983;1292;58929;-78
2022/11/16 10:22:05;;;;;;;4.80;1.60;;;;;;;3.29;82.84;99630.20;105992;1290;60123;-78
2022/11/16 10:25:07;;;;;;;5.70;1.60;;;;;;;3.29;82.19;99626.35;105976;1291;71644;-80
2022/11/16 10:28:45;;;;;;;7.20;2.00;;;;;;;3.27;82.18;99622.98;105870;1288;67099;-79
2022/11/16 10:31:53;;;;;;;5.30;1.40;;;;;;;3.25;82.66;99628.65;105526;1296;72915;-78
2022/11/16 10:34:53;;;;;;;5.00;1.60;;;;;;;3.30;82.58;99634.05;105442;1297;59024;-79
2022/11/16 10:37:47;;;;;;;4.90;1.50;;;;;;;3.33;81.58;99634.38;105533;1303;60490;-78
2022/11/16 10:40:37;;;;;;;4.80;1.40;;;;;;;3.27;80.18;99630.14;105480;1297;71593;-78
2022/11/16 10:43:28;;;;;;;4.50;1.20;;;;;;;3.25;80.74;99631.32;105556;1304;67600;-78
2022/11/16 10:46:22;;;;;;;4.90;1.40;;;;;;;3.24;80.40;99629.79;105499;1297;72774;-79
2022/11/16 10:49:26;;;;;;;5.60;1.70;;;;;;;3.16;80.33;99623.19;105514;1297;58179;-79
2022/11/16 10:52:13;;;;;;;5.70;1.70;;;;;;;3.14;81.04;99628.73;105516;1297;58690;-79
2022/11/16 10:55:01;;;;;;;5.20;1.60;;;;;;;3.15;81.71;99629.89;105557;1298;73042;-81
2022/11/16 10:58:01;;;;;;;5.00;1.80;;;;;;;3.11;81.58;99626.27;105541;1296;68206;-76
2022/11/16 11:00:52;;;;;;;7.30;2.30;;;;;;;3.04;81.66;99623.29;105444;1297;71412;-78
2022/11/16 11:03:40;;;;;;;6.30;1.80;;;;;;;3.05;81.53;99621.31;105540;1290;58889;-79
2022/11/16 11:06:28;;;;;;;5.80;1.70;;;;;;;3.03;80.76;99617.03;105524;1297;60581;-79
2022/11/16 11:09:34;;;;;;;5.70;1.40;;;;;;;3.00;80.81;99615.47;105976;1290;73032;-77
2022/11/16 11:12:37;;;;;;;5.20;1.80;;;;;;;3.00;80.51;99619.33;105883;1290;67968;-80
2022/11/16 11:15:28;;;;;;;4.60;1.30;;;;;;;2.95;80.67;99610.66;105908;1286;72438;-79
2022/11/16 11:18:28;;;;;;;4.60;1.40;;;;;;;2.93;81.05;99610.42;105973;1292;58513;-80
2022/11/16 11:21:19;;;;;;;5.00;1.40;;;;;;;2.90;81.00;99612.28;105922;1288;59090;-78
2022/11/16 11:24:16;;;;;;;5.40;1.60;;;;;;;2.89;81.13;99609.89;105847;1290;72783;-80
2022/11/16 11:27:32;;;;;;;6.10;1.80;;;;;;;2.91;81.70;99611.73;105869;1284;68076;-78
2022/11/16 11:30:21;;;;;;;6.00;1.70;;;;;;;2.89;81.88;99608.86;105946;1290;73684;-78
2022/11/16 11:33:11;;;;;;;5.30;1.50;;;;;;;2.82;82.08;99610.46;105938;1292;59922;-78
2022/11/16 11:36:29;;;;;;;6.20;1.50;;;;;;;2.82;82.22;99613.95;105941;1297;60362;-79
2022/11/16 11:39:20;;;;;;;11.60;3.30;;;;;;;2.84;82.27;99608.06;105910;1290;73759;-77
2022/11/16 11:42:11;;;;;;;13.60;4.60;;;;;;;2.83;82.17;99611.61;105962;1291;66128;-77
2022/11/16 11:45:07;;;;;;;12.80;4.30;;;;;;;2.81;82.20;99612.08;105973;1298;71406;-78
2022/11/16 11:48:10;;;;;;;8.30;2.90;;;;;;;2.81;82.36;99614.16;105743;1292;57357;-77
2022/11/16 11:51:10;;;;;;;6.00;2.20;;;;;;;2.79;81.72;99612.71;105971;1291;60275;-79
2022/11/16 11:54:01;;;;;;;7.90;2.10;;;;;;;2.79;81.41;99612.55;105985;1290;71876;-78
2022/11/16 11:56:49;;;;;;;5.60;1.80;;;;;;;2.76;80.96;99615.85;105928;1284;66769;-78
2022/11/16 11:59:37;;;;;;;6.60;1.90;;;;;;;2.72;80.79;99616.54;105962;1291;73748;-78
2022/11/16 12:02:46;;;;;;;5.90;2.40;;;;;;;2.71;81.11;99616.81;105969;1284;59972;-76
2022/11/16 12:06:17;;;;;;;5.50;1.80;;;;;;;2.69;81.31;99614.65;105959;1292;60489;-78
2022/11/16 12:09:30;;;;;;;7.30;2.30;;;;;;;2.73;81.68;99618.63;105968;1299;73135;-79
2022/11/16 12:13:11;;;;;;;6.40;2.10;;;;;;;2.74;81.83;99617.02;105959;1291;67678;-78
2022/11/16 12:16:09;;;;;;;5.80;1.70;;;;;;;2.72;81.52;99617.44;105447;1289;73685;-79
2022/11/16 12:19:31;;;;;;;5.10;1.60;;;;;;;2.69;81.70;99615.50;105432;1304;58578;-78
2022/11/16 12:22:28;;;;;;;4.90;1.60;;;;;;;2.67;81.96;99612.30;105460;1297;58774;-78
2022/11/16 12:25:25;;;;;;;5.50;1.60;;;;;;;2.66;81.92;99606.73;105456;1289;74316;-79
2022/11/16 12:28:27;;;;;;;5.50;1.90;;;;;;;2.67;81.72;99607.89;105374;1298;67527;-79
2022/11/16 12:31:38;;;;;;;7.00;1.90;;;;;;;2.65;81.43;99606.40;103985;1290;1003082;-78
2022/11/16 12:34:51;;;;;;;5.00;1.60;;;;;;;2.65;81.58;99606.10;105438;1298;58969;-77
2022/11/16 12:37:43;;;;;;;6.00;1.50;;;;;;;2.68;82.01;99601.38;105459;1297;59443;-79
2022/11/16 12:40:59;;;;;;;5.30;1.60;;;;;;;2.71;81.43;99603.64;105357;1300;73828;-80
2022/11/16 12:43:55;;;;;;;4.90;1.70;;;;;;;2.75;81.22;99606.79;105309;1298;68084;-77
2022/11/16 12:47:34;;;;;;;6.70;1.50;;;;;;;2.72;81.30;99611.33;105580;1292;71704;-76
2022/11/16 12:50:34;;;;;;;5.50;1.50;;;;;;;2.66;81.30;99607.42;105595;1295;57228;-77
2022/11/16 12:53:50;;;;;;;6.00;1.50;;;;;;;2.66;81.62;99609.88;105617;1298;61644;-76
2022/11/16 12:57:02;;;;;;;5.80;1.60;;;;;;;2.65;81.91;99609.08;105613;1293;72998;-74
2022/11/16 13:00:05;;;;;;;5.50;1.70;;;;;;;2.63;81.96;99609.55;105617;1295;69041;-79
2022/11/16 13:03:51;;;;;;;5.80;2.10;;;;;;;2.59;82.10;99614.83;105577;1293;72431;-78
2022/11/16 13:06:45;;;;;;;5.60;1.60;;;;;;;2.54;81.61;99609.09;105574;1295;60065;-79
2022/11/16 13:09:39;;;;;;;4.60;1.40;;;;;;;2.52;81.02;99612.52;105640;1288;59038;-79
2022/11/16 13:12:29;;;;;;;6.80;2.20;;;;;;;2.51;80.79;99611.19;105635;1297;73078;-78
2022/11/16 13:15:21;;;;;;;5.80;2.00;;;;;;;2.51;80.76;99608.91;105626;1296;66502;-80
2022/11/16 13:18:19;;;;;;;5.20;1.50;;;;;;;2.46;80.34;99615.63;105529;1298;71751;-79
2022/11/16 13:21:19;;;;;;;5.80;1.70;;;;;;;2.44;80.98;99613.81;105584;1297;60217;-79
2022/11/16 13:24:45;;;;;;;5.80;1.90;;;;;;;2.44;80.79;99611.71;105523;1298;58998;-80
2022/11/16 13:28:13;;;;;;;6.20;1.60;;;;;;;2.44;80.47;99609.27;105925;1291;73210;-79
2022/11/16 13:31:10;;;;;;;6.60;1.80;;;;;;;2.45;80.58;99608.35;105916;1291;66267;-78
2022/11/16 13:34:04;;;;;;;5.00;1.40;;;;;;;2.44;80.59;99609.80;105910;1283;72927;-79
2022/11/16 13:36:52;;;;;;;5.20;1.50;;;;;;;2.41;80.59;99607.16;105950;1291;60046;-79
2022/11/16 13:39:49;;;;;;;5.80;1.60;;;;;;;2.41;80.83;99604.88;105976;1291;60003;-80
2022/11/16 13:42:59;;;;;;;5.40;1.40;;;;;;;2.44;81.02;99602.95;105976;1287;72996;-80
2022/11/16 13:45:58;;;;;;;10.20;2.90;;;;;;;2.44;81.61;99606.10;106005;1291;66651;-79
2022/11/16 13:48:47;;;;;;;8.80;3.40;;;;;;;2.45;81.86;99600.45;105981;1291;71385;-79
2022/11/16 13:51:35;;;;;;;7.30;2.40;;;;;;;2.45;82.19;99605.20;105978;1283;59002;-77
2022/11/16 13:54:33;;;;;;;6.20;1.90;;;;;;;2.45;82.02;99605.04;106007;1284;58881;-78
2022/11/16 13:57:33;;;;;;;8.10;2.30;;;;;;;2.39;81.36;99602.67;105952;1285;71833;-79
2022/11/16 14:00:35;;;;;;;7.20;2.40;;;;;;;2.41;81.38;99606.97;105930;1289;67737;-78
2022/11/16 14:03:29;;;;;;;6.30;1.70;;;;;;;2.40;81.53;99605.96;106029;1290;71040;-79
2022/11/16 14:06:22;;;;;;;6.70;2.10;;;;;;;2.34;81.59;99606.46;105901;1291;58837;-78
2022/11/16 14:09:48;;;;;;;5.40;1.70;;;;;;;2.29;81.79;99607.20;105994;1284;58932;-78
2022/11/16 14:12:52;;;;;;;9.00;2.00;;;;;;;2.28;82.51;99607.95;106003;1284;74006;-79
2022/11/16 14:15:39;;;;;;;5.30;1.60;;;;;;;2.29;82.55;99607.77;105965;1290;69077;-79
2022/11/16 14:18:35;;;;;;;5.60;1.60;;;;;;;2.29;82.82;99606.18;105939;1284;72567;-80
2022/11/16 14:22:07;;;;;;;6.10;1.80;;;;;;;2.32;83.22;99604.64;105933;1291;57355;-80
2022/11/16 14:25:12;;;;;;;5.60;2.00;;;;;;;2.31;83.42;99601.50;105967;1290;61644;-79